Time;durP1;ratioP1;P1;durP2;ratioP2;P2;SDS_P1;SDS_P2;PMS_P1;PMS_P2;Temp;Humidity;BMP_temperature;BMP_pressure;BME280_temperature;BME280_humidity;BME280_pressure;Samples;Min_cycle;Max_cycle;Signal;HPM_P1;HPM_P2
2021/08/29 00:00:06;;;;;;;3.65;1.27;;;16.10;84.20;;;;;;2056060;28;20039;-91
2021/08/29 00:01:07;;;;;;;2.80;1.40;;;16.10;84.20;;;;;;2063471;28;20042;-90
2021/08/29 00:02:07;;;;;;;1.60;1.10;;;16.10;84.20;;;;;;2058227;28;20057;-91
2021/08/29 00:03:08;;;;;;;3.78;1.25;;;16.10;84.20;;;;;;2063787;28;20074;-91
2021/08/29 00:04:08;;;;;;;4.75;1.40;;;16.10;84.20;;;;;;2063556;28;20035;-91
2021/08/29 00:05:09;;;;;;;2.70;1.10;;;16.10;84.20;;;;;;2049630;28;20055;-91
2021/08/29 00:06:10;;;;;;;3.45;1.30;;;16.10;84.20;;;;;;2069142;28;20035;-91
2021/08/29 00:07:12;;;;;;;2.97;1.30;;;16.20;84.30;;;;;;2067372;28;20026;-91
2021/08/29 00:08:12;;;;;;;2.28;1.00;;;16.20;84.30;;;;;;2067597;28;20031;-91
2021/08/29 00:09:13;;;;;;;3.45;1.20;;;16.20;84.30;;;;;;2068888;28;20192;-91
2021/08/29 00:10:13;;;;;;;2.40;1.30;;;16.20;84.30;;;;;;2075011;28;20137;-91
2021/08/29 00:11:14;;;;;;;2.15;1.00;;;16.10;84.20;;;;;;2066066;28;20050;-91
2021/08/29 00:12:15;;;;;;;5.05;1.10;;;16.20;84.30;;;;;;2066156;28;20551;-90
2021/08/29 00:13:16;;;;;;;3.25;1.30;;;16.10;84.20;;;;;;2063679;28;20408;-91
2021/08/29 00:14:16;;;;;;;3.28;1.20;;;16.20;84.30;;;;;;2061625;28;20062;-91
2021/08/29 00:15:19;;;;;;;2.70;1.10;;;16.20;84.40;;;;;;2066296;28;20035;-91
2021/08/29 00:16:19;;;;;;;2.83;1.10;;;16.20;84.30;;;;;;2067342;28;20185;-92
2021/08/29 00:17:20;;;;;;;3.10;1.10;;;16.20;84.30;;;;;;2059277;28;20060;-90
2021/08/29 00:18:21;;;;;;;2.90;1.20;;;16.20;84.30;;;;;;2058247;28;20067;-91
2021/08/29 00:19:21;;;;;;;2.60;0.98;;;16.20;84.40;;;;;;2071193;28;20030;-90
2021/08/29 00:20:22;;;;;;;3.40;1.35;;;16.20;84.40;;;;;;2072673;28;20058;-91
2021/08/29 00:21:23;;;;;;;2.63;1.10;;;16.20;85.00;;;;;;2056630;28;20051;-91
2021/08/29 00:22:23;;;;;;;2.55;1.20;;;16.20;84.90;;;;;;2065541;28;20061;-91
2021/08/29 00:23:24;;;;;;;2.17;1.20;;;16.20;84.40;;;;;;2080314;28;20113;-91
2021/08/29 00:24:25;;;;;;;3.30;1.23;;;16.20;84.30;;;;;;2056677;28;20043;-91
2021/08/29 00:25:27;;;;;;;2.75;1.20;;;16.20;84.30;;;;;;2056129;28;20094;-90
2021/08/29 00:26:28;;;;;;;1.90;1.20;;;16.20;84.40;;;;;;2064453;28;20103;-90
2021/08/29 00:27:29;;;;;;;1.67;1.00;;;16.20;84.30;;;;;;2058149;28;20042;-90
2021/08/29 00:28:29;;;;;;;3.65;1.20;;;16.20;84.40;;;;;;2053386;29;20133;-91
2021/08/29 00:29:30;;;;;;;1.80;1.05;;;16.20;84.40;;;;;;2065471;28;20059;-92
2021/08/29 00:30:31;;;;;;;1.90;1.30;;;16.20;84.40;;;;;;2081365;28;20044;-91
2021/08/29 00:31:31;;;;;;;2.78;1.27;;;16.20;84.40;;;;;;2071879;28;20555;-91
2021/08/29 00:32:32;;;;;;;2.53;1.33;;;16.30;84.40;;;;;;2061526;28;20054;-91
2021/08/29 00:33:33;;;;;;;2.15;1.00;;;16.30;84.40;;;;;;2063191;28;20035;-90
2021/08/29 00:34:33;;;;;;;2.47;1.15;;;16.20;84.30;;;;;;2063103;28;20041;-91
2021/08/29 00:35:34;;;;;;;2.92;1.27;;;16.30;84.40;;;;;;2075550;28;21080;-91
2021/08/29 00:36:42;;;;;;;2.10;1.15;;;16.30;84.40;;;;;;2073374;28;20040;-91
2021/08/29 00:37:42;;;;;;;1.85;1.40;;;16.30;84.40;;;;;;2068039;28;20050;-90
2021/08/29 00:38:43;;;;;;;2.42;1.17;;;16.30;84.40;;;;;;2059053;28;20139;-91
2021/08/29 00:39:44;;;;;;;3.00;1.30;;;16.20;84.50;;;;;;2067426;28;20106;-90
2021/08/29 00:40:46;;;;;;;2.72;1.30;;;16.20;84.50;;;;;;2067578;28;20122;-90
2021/08/29 00:41:47;;;;;;;3.53;1.50;;;16.30;84.50;;;;;;2068591;28;20023;-88
2021/08/29 00:42:51;;;;;;;3.38;1.40;;;16.20;84.50;;;;;;2067788;28;20058;-90
2021/08/29 00:43:52;;;;;;;2.72;1.20;;;16.20;84.60;;;;;;2065161;28;20038;-91
2021/08/29 00:44:53;;;;;;;3.25;1.40;;;16.20;84.60;;;;;;2075638;28;20042;-91
2021/08/29 00:45:54;;;;;;;3.85;1.50;;;16.20;84.70;;;;;;2082959;28;20038;-91
2021/08/29 00:46:54;;;;;;;2.85;1.38;;;16.20;84.70;;;;;;2075804;28;20041;-91
2021/08/29 00:47:56;;;;;;;2.67;1.20;;;16.20;84.70;;;;;;2064753;28;20054;-92
2021/08/29 00:48:57;;;;;;;2.53;1.30;;;16.20;84.70;;;;;;2068805;28;20535;-90
2021/08/29 00:49:57;;;;;;;2.60;1.10;;;16.20;84.70;;;;;;2066605;28;20046;-90
2021/08/29 00:50:58;;;;;;;2.00;1.10;;;16.20;84.70;;;;;;2068320;28;20158;-92
2021/08/29 00:52:01;;;;;;;3.28;1.23;;;16.20;84.70;;;;;;2062900;28;20024;-89
2021/08/29 00:53:07;;;;;;;2.47;1.20;;;16.20;84.70;;;;;;2059324;28;20042;-91
2021/08/29 00:54:08;;;;;;;2.53;1.30;;;16.30;84.70;;;;;;2071667;28;20034;-91
2021/08/29 00:55:10;;;;;;;3.67;1.40;;;16.30;84.70;;;;;;2066943;28;20038;-91
2021/08/29 00:56:11;;;;;;;3.05;1.30;;;16.20;84.60;;;;;;2058226;28;20177;-92
2021/08/29 00:57:11;;;;;;;3.10;1.42;;;16.30;84.70;;;;;;2063139;28;20034;-91
2021/08/29 00:58:12;;;;;;;2.65;1.30;;;16.30;84.70;;;;;;2052505;28;20028;-91
2021/08/29 00:59:13;;;;;;;2.58;1.27;;;16.30;84.70;;;;;;2064771;28;20039;-90
2021/08/29 01:00:14;;;;;;;3.35;1.40;;;16.30;84.70;;;;;;2051675;28;20031;-92
2021/08/29 01:01:18;;;;;;;3.03;1.25;;;16.30;84.70;;;;;;2049429;28;20048;-92
2021/08/29 01:02:26;;;;;;;2.78;1.20;;;16.20;84.70;;;;;;2058014;28;20401;-91
2021/08/29 01:03:28;;;;;;;2.38;1.15;;;16.30;84.80;;;;;;2065735;28;20065;-91
2021/08/29 01:04:38;;;;;;;2.67;1.30;;;16.20;84.80;;;;;;2066909;28;20517;-91
2021/08/29 01:05:51;;;;;;;4.07;1.30;;;16.20;84.80;;;;;;2070756;28;20056;-91
2021/08/29 01:07:01;;;;;;;2.78;1.58;;;16.20;84.80;;;;;;2066664;28;20045;-92
2021/08/29 01:08:06;;;;;;;1.98;1.10;;;16.20;84.80;;;;;;2060306;28;20536;-92
2021/08/29 01:09:11;;;;;;;2.15;1.13;;;16.20;84.80;;;;;;2065114;28;20101;-91
2021/08/29 01:10:19;;;;;;;3.13;1.50;;;16.20;84.80;;;;;;2066038;28;20497;-91
2021/08/29 01:11:25;;;;;;;2.47;1.20;;;16.20;84.80;;;;;;2073593;28;20129;-91
2021/08/29 01:12:29;;;;;;;3.90;1.30;;;16.20;84.80;;;;;;2070548;28;20132;-91
2021/08/29 01:13:34;;;;;;;3.70;1.40;;;16.20;84.90;;;;;;2058053;28;20113;-91
2021/08/29 01:14:35;;;;;;;3.90;1.33;;;16.20;84.80;;;;;;2065564;28;20038;-91
2021/08/29 01:15:37;;;;;;;3.38;1.48;;;16.20;84.90;;;;;;2049601;28;20150;-91
2021/08/29 01:16:44;;;;;;;3.85;1.45;;;16.20;84.90;;;;;;2041493;28;20470;-89
2021/08/29 01:17:48;;;;;;;3.30;1.25;;;16.20;84.90;;;;;;2066621;28;20031;-90
2021/08/29 01:18:54;;;;;;;1.95;1.20;;;16.30;85.50;;;;;;2064588;28;20097;-90
2021/08/29 01:20:15;;;;;;;3.42;1.20;;;16.20;84.90;;;;;;2058573;28;20046;-92
2021/08/29 01:21:16;;;;;;;;;;;16.30;84.90;;;;;;2073646;28;20042;-90
2021/08/29 01:22:19;;;;;;;2.60;1.30;;;16.20;84.90;;;;;;2072566;28;19944;-91
2021/08/29 01:23:22;;;;;;;3.20;1.40;;;16.20;84.80;;;;;;2056922;28;20043;-90
2021/08/29 01:24:25;;;;;;;3.08;1.20;;;16.20;84.80;;;;;;2065106;28;20038;-90
2021/08/29 01:25:32;;;;;;;2.92;1.40;;;16.20;84.80;;;;;;2064747;28;20041;-90
2021/08/29 01:26:53;;;;;;;3.20;1.30;;;16.20;84.90;;;;;;2065749;28;20113;-90
2021/08/29 01:28:04;;;;;;;2.67;1.38;;;16.20;84.90;;;;;;2077420;28;20030;-90
2021/08/29 01:29:06;;;;;;;3.20;1.40;;;16.20;84.90;;;;;;2072494;28;20042;-90
2021/08/29 01:30:09;;;;;;;2.72;1.17;;;16.30;84.90;;;;;;2057231;28;20038;-91
2021/08/29 01:31:10;;;;;;;2.75;1.40;;;16.30;85.00;;;;;;2062561;28;20038;-91
2021/08/29 01:32:12;;;;;;;3.35;1.30;;;16.20;84.90;;;;;;2057745;28;20082;-91
2021/08/29 01:33:14;;;;;;;2.40;1.10;;;16.20;84.90;;;;;;2064659;28;20034;-91
2021/08/29 01:34:16;;;;;;;2.05;1.20;;;16.20;84.90;;;;;;2072709;28;20038;-90
2021/08/29 01:35:17;;;;;;;2.50;1.30;;;16.20;85.00;;;;;;2080479;28;20045;-91
2021/08/29 01:36:19;;;;;;;3.38;1.30;;;16.20;85.00;;;;;;2056478;28;20039;-91
2021/08/29 01:37:20;;;;;;;3.65;1.60;;;16.20;85.00;;;;;;2047703;28;20485;-90
2021/08/29 01:38:22;;;;;;;3.90;1.40;;;16.20;85.00;;;;;;2056051;28;20066;-91
2021/08/29 01:39:23;;;;;;;3.28;1.48;;;16.20;85.10;;;;;;2065997;28;20143;-90
2021/08/29 01:40:24;;;;;;;3.05;1.67;;;16.20;85.10;;;;;;2064142;28;20610;-91
2021/08/29 01:41:26;;;;;;;3.28;1.58;;;16.30;85.10;;;;;;2055245;28;20055;-91
2021/08/29 01:42:27;;;;;;;3.13;1.38;;;16.20;85.10;;;;;;2057014;28;20429;-90
2021/08/29 01:43:28;;;;;;;3.28;1.40;;;16.30;85.10;;;;;;2049366;28;20036;-91
2021/08/29 01:44:29;;;;;;;4.57;1.42;;;16.30;85.30;;;;;;2058868;28;20070;-90
2021/08/29 01:45:30;;;;;;;4.45;1.50;;;16.30;85.10;;;;;;2063918;28;20047;-90
2021/08/29 01:46:32;;;;;;;3.88;1.60;;;16.20;85.10;;;;;;2065246;28;20034;-91
2021/08/29 01:47:33;;;;;;;3.38;1.50;;;16.30;85.10;;;;;;2058565;28;20039;-91
2021/08/29 01:48:35;;;;;;;4.63;1.60;;;16.30;85.10;;;;;;2071418;28;20029;-91
2021/08/29 01:49:36;;;;;;;3.78;1.73;;;16.30;85.10;;;;;;2057181;28;20583;-91
2021/08/29 01:50:36;;;;;;;3.72;1.58;;;16.30;85.10;;;;;;2048965;28;20122;-90
2021/08/29 01:51:39;;;;;;;3.25;1.60;;;16.30;85.10;;;;;;2058495;28;20050;-91
2021/08/29 01:52:39;;;;;;;4.95;1.52;;;16.30;85.20;;;;;;2076893;28;20105;-90
2021/08/29 01:53:41;;;;;;;3.88;1.30;;;16.30;85.20;;;;;;2058403;28;20035;-90
2021/08/29 01:54:41;;;;;;;2.53;1.50;;;16.30;85.20;;;;;;2055808;28;20034;-90
2021/08/29 01:55:42;;;;;;;3.83;1.55;;;16.30;85.20;;;;;;2064814;28;20538;-91
2021/08/29 01:57:11;;;;;;;4.03;1.60;;;16.30;85.20;;;;;;2040905;29;20035;-92
2021/08/29 01:58:12;;;;;;;3.10;1.40;;;16.30;85.20;;;;;;2063307;28;20041;-92
2021/08/29 01:59:12;;;;;;;4.45;1.52;;;16.30;85.20;;;;;;2057080;28;20062;-91
2021/08/29 02:00:13;;;;;;;4.28;1.75;;;16.30;85.20;;;;;;2048831;29;20042;-91
2021/08/29 02:01:14;;;;;;;3.40;1.58;;;16.30;85.20;;;;;;2065403;28;20332;-91
2021/08/29 02:02:17;;;;;;;3.65;1.63;;;16.20;85.10;;;;;;2057305;28;20046;-91
2021/08/29 02:03:19;;;;;;;4.32;1.52;;;16.30;85.20;;;;;;2043548;28;20035;-91
2021/08/29 02:04:22;;;;;;;3.47;1.60;;;16.30;85.20;;;;;;2072970;28;20511;-91
2021/08/29 02:05:23;;;;;;;4.93;1.60;;;16.30;85.20;;;;;;2072939;28;20041;-91
2021/08/29 02:06:26;;;;;;;4.38;1.80;;;16.20;85.20;;;;;;2049208;29;20039;-90
2021/08/29 02:07:33;;;;;;;5.03;1.80;;;16.30;85.30;;;;;;2055727;28;20023;-91
2021/08/29 02:08:38;;;;;;;5.57;2.00;;;16.30;85.30;;;;;;2063414;28;20034;-91
2021/08/29 02:09:47;;;;;;;3.35;1.70;;;16.20;85.20;;;;;;2066994;28;20042;-91
2021/08/29 02:10:51;;;;;;;3.17;1.67;;;16.20;85.20;;;;;;2075741;28;20467;-91
2021/08/29 02:11:53;;;;;;;4.28;1.73;;;16.20;85.20;;;;;;2082714;28;20021;-91
2021/08/29 02:12:59;;;;;;;3.70;1.67;;;16.30;85.30;;;;;;2075646;28;20092;-91
2021/08/29 02:14:04;;;;;;;3.40;1.52;;;16.20;85.20;;;;;;2076033;28;20484;-91
2021/08/29 02:15:07;;;;;;;4.65;1.80;;;16.30;85.30;;;;;;2069100;28;20519;-90
2021/08/29 02:16:12;;;;;;;4.03;1.70;;;16.30;85.30;;;;;;2076954;28;20502;-92
2021/08/29 02:17:13;;;;;;;3.90;1.60;;;16.30;85.30;;;;;;2084362;28;20046;-92
2021/08/29 02:18:15;;;;;;;4.18;1.60;;;16.30;85.30;;;;;;2076817;28;20034;-91
2021/08/29 02:19:24;;;;;;;4.30;1.73;;;16.20;85.20;;;;;;2073489;28;20038;-91
2021/08/29 02:20:25;;;;;;;3.20;1.70;;;16.30;85.30;;;;;;2066177;28;20031;-91
2021/08/29 02:21:27;;;;;;;4.25;1.48;;;16.20;85.30;;;;;;2054302;28;20066;-91
2021/08/29 02:22:28;;;;;;;4.80;1.75;;;16.20;85.20;;;;;;2054389;28;20035;-90
2021/08/29 02:23:30;;;;;;;5.35;1.80;;;16.30;85.30;;;;;;2060369;28;20038;-91
2021/08/29 02:24:31;;;;;;;4.55;1.70;;;16.20;85.20;;;;;;2060389;28;20124;-91
2021/08/29 02:25:33;;;;;;;3.88;1.80;;;16.30;85.30;;;;;;2060970;28;20066;-90
2021/08/29 02:26:34;;;;;;;4.55;1.67;;;16.20;85.30;;;;;;2056271;28;20036;-91
2021/08/29 02:27:35;;;;;;;4.20;1.80;;;16.20;85.30;;;;;;2051771;29;20111;-90
2021/08/29 02:28:37;;;;;;;5.03;1.70;;;16.20;85.30;;;;;;2052076;28;20032;-91
2021/08/29 02:29:38;;;;;;;3.05;1.55;;;16.20;85.30;;;;;;2069260;28;20041;-91
2021/08/29 02:30:41;;;;;;;4.03;1.80;;;16.20;85.40;;;;;;2059671;28;20066;-92
2021/08/29 02:31:43;;;;;;;3.05;1.50;;;16.20;85.40;;;;;;2052499;28;20036;-91
2021/08/29 02:32:45;;;;;;;3.58;1.60;;;16.20;85.40;;;;;;2067142;28;20062;-92
2021/08/29 02:33:47;;;;;;;4.20;1.88;;;16.20;86.00;;;;;;2058003;28;20393;-92
2021/08/29 02:34:48;;;;;;;4.38;1.73;;;16.20;85.40;;;;;;2059106;28;20027;-91
2021/08/29 02:35:51;;;;;;;4.05;1.77;;;16.20;85.30;;;;;;2058634;28;20035;-92
2021/08/29 02:36:52;;;;;;;3.35;1.73;;;16.20;85.30;;;;;;2058933;28;20027;-90
2021/08/29 02:37:54;;;;;;;4.07;1.90;;;16.20;85.30;;;;;;2057474;28;20062;-91
2021/08/29 02:38:55;;;;;;;3.97;2.10;;;16.20;85.30;;;;;;2057840;28;20047;-91
2021/08/29 02:39:57;;;;;;;3.92;2.20;;;16.20;85.30;;;;;;2051168;28;20113;-90
2021/08/29 02:41:03;;;;;;;4.13;2.00;;;16.20;85.30;;;;;;2064756;28;20435;-91
2021/08/29 02:42:06;;;;;;;3.60;2.05;;;16.20;85.20;;;;;;2068434;28;20048;-90
2021/08/29 02:43:08;;;;;;;5.00;2.20;;;16.20;85.20;;;;;;2062582;28;20042;-93
2021/08/29 02:44:10;;;;;;;4.68;2.30;;;16.30;85.20;;;;;;2076539;28;20042;-92
2021/08/29 02:45:13;;;;;;;5.50;2.40;;;16.20;85.20;;;;;;2068590;28;20030;-91
2021/08/29 02:46:13;;;;;;;4.57;2.20;;;16.30;85.20;;;;;;2063031;28;20704;-92
2021/08/29 02:47:14;;;;;;;4.32;2.28;;;16.20;85.20;;;;;;2061076;28;20071;-91
2021/08/29 02:48:16;;;;;;;4.88;2.50;;;16.20;85.20;;;;;;2051608;28;20485;-91
2021/08/29 02:49:22;;;;;;;5.88;2.88;;;16.30;85.20;;;;;;2061576;28;20039;-90
2021/08/29 02:50:23;;;;;;;6.07;3.00;;;16.30;85.20;;;;;;2069416;28;20070;-91
2021/08/29 02:51:24;;;;;;;4.95;2.90;;;16.30;85.20;;;;;;2055872;28;20035;-91
2021/08/29 02:52:26;;;;;;;5.95;3.30;;;16.20;85.10;;;;;;2058213;28;20045;-91
2021/08/29 02:53:27;;;;;;;7.03;3.13;;;16.30;85.10;;;;;;2059132;28;20424;-91
2021/08/29 02:54:28;;;;;;;6.75;3.30;;;16.30;85.10;;;;;;2055603;28;20038;-91
2021/08/29 02:55:30;;;;;;;7.50;3.55;;;16.30;85.00;;;;;;2057251;28;20030;-91
2021/08/29 02:56:32;;;;;;;8.07;4.13;;;16.30;85.00;;;;;;2057545;28;20050;-91
2021/08/29 02:57:35;;;;;;;7.90;4.30;;;16.30;85.00;;;;;;2065914;28;20105;-90
2021/08/29 02:58:36;;;;;;;8.50;4.47;;;16.30;85.00;;;;;;2053159;28;20043;-92
2021/08/29 02:59:37;;;;;;;8.23;4.32;;;16.30;85.00;;;;;;2058611;28;20042;-91
2021/08/29 03:00:38;;;;;;;8.77;4.20;;;16.30;85.00;;;;;;2063306;28;20065;-91
2021/08/29 03:01:38;;;;;;;8.00;4.60;;;16.30;85.00;;;;;;2050321;29;20039;-92
2021/08/29 03:02:41;;;;;;;7.50;4.43;;;16.30;85.00;;;;;;2057414;28;20106;-91
2021/08/29 03:03:42;;;;;;;8.07;4.70;;;16.30;85.00;;;;;;2059355;28;20086;-91
2021/08/29 03:04:43;;;;;;;7.47;4.72;;;16.30;84.90;;;;;;2049685;28;20040;-90
2021/08/29 03:05:44;;;;;;;7.90;4.85;;;16.30;84.90;;;;;;2058321;28;20038;-91
2021/08/29 03:06:44;;;;;;;10.38;5.18;;;16.30;84.90;;;;;;2058300;28;20047;-91
2021/08/29 03:07:45;;;;;;;9.43;5.25;;;16.30;84.80;;;;;;2061274;28;20126;-91
2021/08/29 03:08:46;;;;;;;8.48;5.13;;;16.30;84.80;;;;;;2060422;28;20126;-91
2021/08/29 03:09:47;;;;;;;9.98;5.40;;;16.30;84.80;;;;;;2063380;28;20069;-91
2021/08/29 03:10:48;;;;;;;8.32;5.10;;;16.30;84.70;;;;;;2065679;28;20030;-91
2021/08/29 03:11:49;;;;;;;8.82;5.10;;;16.30;84.70;;;;;;2057744;28;20035;-92
2021/08/29 03:12:50;;;;;;;10.05;5.40;;;16.30;84.70;;;;;;2046778;28;20046;-92
2021/08/29 03:13:51;;;;;;;9.77;5.43;;;16.30;84.70;;;;;;2065384;28;20034;-91
2021/08/29 03:14:53;;;;;;;11.75;5.82;;;16.30;84.70;;;;;;2074219;28;20037;-92
2021/08/29 03:15:54;;;;;;;8.73;5.22;;;16.30;85.40;;;;;;2058750;28;20069;-91
2021/08/29 03:16:55;;;;;;;10.65;5.75;;;16.30;84.70;;;;;;2064590;28;20039;-90
2021/08/29 03:17:56;;;;;;;10.57;6.00;;;16.30;84.70;;;;;;2065548;28;20038;-91
2021/08/29 03:18:59;;;;;;;10.13;5.85;;;16.30;84.70;;;;;;2066908;28;20105;-90
2021/08/29 03:20:01;;;;;;;8.90;5.55;;;16.30;84.70;;;;;;2050280;28;20040;-90
2021/08/29 03:21:02;;;;;;;9.10;5.45;;;16.30;84.70;;;;;;2065741;28;20049;-92
2021/08/29 03:22:04;;;;;;;9.05;6.05;;;16.30;84.70;;;;;;2069266;28;20035;-91
2021/08/29 03:23:05;;;;;;;9.65;5.63;;;16.30;84.70;;;;;;2051560;28;20070;-91
2021/08/29 03:24:06;;;;;;;8.23;5.60;;;16.20;84.70;;;;;;2048703;28;20063;-90
2021/08/29 03:25:07;;;;;;;8.70;5.43;;;16.20;84.90;;;;;;2065143;28;20042;-91
2021/08/29 03:26:08;;;;;;;8.98;5.95;;;16.20;84.90;;;;;;2072964;28;20404;-91
2021/08/29 03:27:10;;;;;;;7.78;5.20;;;16.20;84.90;;;;;;2065501;28;20449;-91
2021/08/29 03:28:11;;;;;;;7.55;5.25;;;16.20;85.00;;;;;;2058156;28;20112;-91
2021/08/29 03:29:12;;;;;;;9.73;5.40;;;16.20;85.10;;;;;;2066229;28;20060;-90
2021/08/29 03:30:13;;;;;;;8.73;5.07;;;16.10;85.10;;;;;;2058060;28;20560;-91
2021/08/29 03:31:14;;;;;;;7.70;4.53;;;16.10;85.20;;;;;;2049425;28;20035;-90
2021/08/29 03:32:14;;;;;;;9.90;4.97;;;16.10;85.30;;;;;;2048829;28;20126;-92
2021/08/29 03:33:15;;;;;;;8.52;5.03;;;16.10;85.40;;;;;;2058184;28;20133;-91
2021/08/29 03:34:17;;;;;;;7.47;4.35;;;16.10;85.50;;;;;;2065101;28;20085;-92
2021/08/29 03:35:19;;;;;;;8.13;4.55;;;16.00;85.50;;;;;;2066474;28;20050;-91
2021/08/29 03:36:23;;;;;;;8.57;4.50;;;16.10;85.60;;;;;;2065715;28;20132;-91
2021/08/29 03:37:25;;;;;;;6.70;4.07;;;16.00;85.60;;;;;;2060501;28;20055;-91
2021/08/29 03:38:28;;;;;;;7.07;4.10;;;16.10;85.80;;;;;;2073441;28;20034;-91
2021/08/29 03:39:29;;;;;;;7.65;4.32;;;16.00;85.80;;;;;;2058080;28;20034;-91
2021/08/29 03:40:31;;;;;;;6.60;3.65;;;16.00;85.90;;;;;;2053095;28;20046;-91
2021/08/29 03:41:33;;;;;;;6.93;3.75;;;16.00;85.90;;;;;;2058098;28;20086;-91
2021/08/29 03:42:34;;;;;;;6.13;3.53;;;16.00;86.00;;;;;;2056749;28;20214;-91
2021/08/29 03:43:35;;;;;;;6.85;3.88;;;16.00;86.10;;;;;;2074117;28;20040;-91
2021/08/29 03:44:36;;;;;;;7.78;3.60;;;15.90;86.10;;;;;;2071529;28;20431;-91
2021/08/29 03:45:37;;;;;;;6.30;3.63;;;15.90;86.10;;;;;;2067710;28;20092;-90
2021/08/29 03:46:38;;;;;;;7.95;3.47;;;15.90;86.20;;;;;;2065138;28;20039;-92
2021/08/29 03:47:39;;;;;;;6.25;3.45;;;15.90;86.20;;;;;;2057966;28;20030;-92
2021/08/29 03:48:40;;;;;;;6.00;3.20;;;15.90;86.30;;;;;;2058065;28;20035;-92
2021/08/29 03:49:42;;;;;;;5.03;2.83;;;15.80;86.30;;;;;;2072822;28;20121;-92
2021/08/29 03:50:45;;;;;;;4.97;2.78;;;15.90;86.40;;;;;;2065218;28;20034;-91
2021/08/29 03:51:46;;;;;;;6.03;3.30;;;15.90;86.50;;;;;;2058001;28;20081;-91
2021/08/29 03:52:49;;;;;;;5.63;2.83;;;15.90;86.50;;;;;;2056959;28;20035;-92
2021/08/29 03:53:50;;;;;;;5.55;2.58;;;15.90;86.50;;;;;;2059913;28;20062;-92
2021/08/29 03:54:51;;;;;;;5.15;2.70;;;15.90;86.50;;;;;;2056605;28;20129;-92
2021/08/29 03:55:52;;;;;;;4.20;2.78;;;15.90;86.50;;;;;;2056451;28;20039;-92
2021/08/29 03:56:53;;;;;;;4.63;2.60;;;15.90;86.60;;;;;;2073257;28;20034;-92
2021/08/29 03:57:57;;;;;;;5.68;2.58;;;15.90;86.60;;;;;;2057734;28;20035;-91
2021/08/29 03:58:58;;;;;;;5.30;2.53;;;15.90;86.60;;;;;;2050379;28;20035;-91
2021/08/29 03:59:59;;;;;;;4.10;2.30;;;15.90;86.60;;;;;;2061789;28;20046;-90
2021/08/29 04:01:00;;;;;;;4.88;2.47;;;15.90;86.60;;;;;;2048990;28;20481;-91
2021/08/29 04:02:01;;;;;;;4.97;2.25;;;15.90;86.60;;;;;;2057884;28;20143;-91
2021/08/29 04:03:02;;;;;;;5.95;2.15;;;15.90;86.60;;;;;;2064897;28;20043;-90
2021/08/29 04:04:02;;;;;;;4.10;2.25;;;15.90;86.50;;;;;;2063414;28;20111;-91
2021/08/29 04:05:03;;;;;;;4.30;2.10;;;15.90;86.60;;;;;;2072279;28;20117;-92
2021/08/29 04:06:05;;;;;;;5.38;2.15;;;15.90;86.60;;;;;;2073055;28;20041;-91
2021/08/29 04:07:08;;;;;;;4.50;1.98;;;15.90;86.60;;;;;;2058142;28;20062;-91
2021/08/29 04:08:12;;;;;;;4.00;2.05;;;15.90;86.60;;;;;;2055179;28;20114;-91
2021/08/29 04:09:14;;;;;;;4.70;2.05;;;15.90;86.70;;;;;;2056272;28;20043;-90
2021/08/29 04:10:18;;;;;;;3.08;1.90;;;16.00;86.70;;;;;;2057110;28;20049;-91
2021/08/29 04:11:28;;;;;;;4.05;1.90;;;16.00;86.70;;;;;;2065235;28;20564;-92
2021/08/29 04:12:30;;;;;;;3.87;2.03;;;15.90;86.70;;;;;;2073982;28;20038;-91
2021/08/29 04:13:32;;;;;;;3.53;2.00;;;16.00;86.70;;;;;;2078594;28;20289;-91
2021/08/29 04:14:33;;;;;;;4.25;1.85;;;16.00;86.70;;;;;;2065443;28;20125;-91
2021/08/29 04:15:36;;;;;;;4.38;1.90;;;16.00;86.70;;;;;;2064412;28;20046;-92
2021/08/29 04:16:39;;;;;;;3.85;1.85;;;16.00;86.70;;;;;;2056967;28;20181;-91
2021/08/29 04:17:40;;;;;;;3.72;1.85;;;16.00;86.70;;;;;;2065868;28;20049;-91
2021/08/29 04:18:46;;;;;;;4.32;1.70;;;16.00;86.70;;;;;;2064231;28;20123;-91
2021/08/29 04:19:48;;;;;;;4.28;1.70;;;16.00;86.70;;;;;;2058870;28;20077;-90
2021/08/29 04:20:49;;;;;;;4.13;1.95;;;16.00;86.80;;;;;;2066061;28;20432;-90
2021/08/29 04:21:51;;;;;;;3.00;1.65;;;16.00;86.80;;;;;;2057153;28;20034;-91
2021/08/29 04:22:52;;;;;;;5.13;1.85;;;16.00;86.80;;;;;;2054428;28;20111;-91
2021/08/29 04:23:53;;;;;;;4.78;1.65;;;16.00;86.80;;;;;;2057010;28;20408;-91
2021/08/29 04:24:54;;;;;;;3.55;1.63;;;16.10;86.90;;;;;;2049041;28;20038;-91
2021/08/29 04:25:55;;;;;;;5.07;1.60;;;16.00;86.80;;;;;;2052357;28;20039;-91
2021/08/29 04:26:56;;;;;;;4.43;1.80;;;16.00;86.80;;;;;;2071146;28;20030;-91
2021/08/29 04:27:57;;;;;;;5.05;1.90;;;16.10;86.90;;;;;;2064624;28;20467;-91
2021/08/29 04:28:58;;;;;;;4.65;1.92;;;16.00;86.80;;;;;;2063799;28;20046;-91
2021/08/29 04:29:59;;;;;;;4.40;1.80;;;16.00;86.80;;;;;;2065226;28;20046;-91
2021/08/29 04:31:11;;;;;;;4.85;1.90;;;16.00;86.90;;;;;;2065758;28;20038;-90
2021/08/29 04:32:13;;;;;;;6.00;1.95;;;16.00;86.90;;;;;;2072999;28;20045;-91
2021/08/29 04:33:14;;;;;;;4.85;1.70;;;16.00;86.90;;;;;;2057229;28;20623;-91
2021/08/29 04:34:15;;;;;;;4.43;2.00;;;16.00;86.90;;;;;;2057522;28;20123;-90
2021/08/29 04:35:15;;;;;;;3.72;1.92;;;16.10;87.00;;;;;;2056994;28;20049;-90
2021/08/29 04:36:16;;;;;;;4.38;1.80;;;16.00;86.90;;;;;;2053377;28;20051;-91
2021/08/29 04:37:17;;;;;;;4.80;1.63;;;16.10;87.10;;;;;;2071943;28;20034;-90
2021/08/29 04:38:17;;;;;;;3.05;1.50;;;16.00;87.00;;;;;;2065523;28;20070;-90
2021/08/29 04:39:18;;;;;;;4.90;1.70;;;16.00;87.10;;;;;;2067163;28;20039;-90
2021/08/29 04:40:19;;;;;;;6.28;1.80;;;16.00;87.10;;;;;;2081608;28;20069;-90
2021/08/29 04:41:21;;;;;;;4.43;1.75;;;16.00;87.10;;;;;;2081104;28;20026;-90
2021/08/29 04:42:22;;;;;;;3.78;1.50;;;16.00;87.20;;;;;;2073788;28;20065;-91
2021/08/29 04:43:22;;;;;;;3.70;1.73;;;16.00;87.20;;;;;;2065815;28;20042;-90
2021/08/29 04:44:23;;;;;;;3.50;1.60;;;16.00;87.20;;;;;;2065226;28;20133;-89
2021/08/29 04:45:24;;;;;;;4.75;1.80;;;16.00;87.20;;;;;;2066187;28;20057;-91
2021/08/29 04:46:24;;;;;;;5.95;1.70;;;16.00;87.20;;;;;;2065844;28;20047;-90
2021/08/29 04:47:25;;;;;;;3.05;1.50;;;16.00;87.30;;;;;;2066054;28;20038;-90
2021/08/29 04:48:26;;;;;;;3.58;1.65;;;16.00;87.30;;;;;;2063043;28;20042;-90
2021/08/29 04:49:26;;;;;;;2.97;1.50;;;16.10;87.40;;;;;;2047851;28;20059;-91
2021/08/29 04:50:29;;;;;;;4.38;1.70;;;16.00;87.30;;;;;;2057049;28;20538;-91
2021/08/29 04:51:30;;;;;;;4.32;1.65;;;16.10;88.00;;;;;;2064129;28;20027;-90
2021/08/29 04:52:31;;;;;;;3.80;1.60;;;16.00;87.30;;;;;;2058395;28;20071;-91
2021/08/29 04:53:32;;;;;;;3.35;1.30;;;16.10;87.40;;;;;;2066064;28;20468;-91
2021/08/29 04:54:32;;;;;;;3.95;1.58;;;16.10;87.40;;;;;;2074358;28;20056;-91
2021/08/29 04:55:33;;;;;;;4.07;1.45;;;16.10;87.40;;;;;;2082127;28;20060;-91
2021/08/29 04:56:33;;;;;;;3.25;1.70;;;16.10;87.30;;;;;;2069158;28;20129;-91
2021/08/29 04:57:34;;;;;;;5.85;2.00;;;16.10;87.40;;;;;;2060228;28;20062;-91
2021/08/29 04:58:35;;;;;;;4.15;1.50;;;16.10;87.40;;;;;;2063697;28;20110;-90
2021/08/29 04:59:35;;;;;;;5.85;1.90;;;16.10;87.60;;;;;;2066849;28;20049;-91
2021/08/29 05:00:36;;;;;;;4.38;1.63;;;16.10;87.50;;;;;;2060506;28;20332;-91
2021/08/29 05:01:37;;;;;;;4.75;1.80;;;16.10;87.40;;;;;;2065671;28;20094;-90
2021/08/29 05:02:37;;;;;;;3.83;1.60;;;16.10;87.40;;;;;;2060319;28;20162;-91
2021/08/29 05:03:38;;;;;;;4.43;2.05;;;16.10;87.40;;;;;;2071339;28;20034;-90
2021/08/29 05:04:39;;;;;;;4.70;1.73;;;16.10;87.40;;;;;;2077292;28;20409;-91
2021/08/29 05:05:39;;;;;;;3.83;1.63;;;16.20;87.40;;;;;;2059617;28;20043;-90
2021/08/29 05:06:40;;;;;;;3.80;1.30;;;16.10;87.40;;;;;;2048901;29;20059;-91
2021/08/29 05:07:41;;;;;;;5.15;1.73;;;16.10;87.40;;;;;;2057386;28;20090;-90
2021/08/29 05:08:41;;;;;;;3.33;1.42;;;16.20;87.50;;;;;;2056017;28;20043;-89
2021/08/29 05:09:42;;;;;;;6.22;1.92;;;16.20;87.50;;;;;;2048463;28;20046;-90
2021/08/29 05:10:43;;;;;;;3.92;1.60;;;16.10;87.40;;;;;;2064470;28;20034;-90
2021/08/29 05:11:43;;;;;;;5.03;1.80;;;16.20;87.40;;;;;;2049324;29;20112;-91
2021/08/29 05:12:44;;;;;;;3.92;1.60;;;16.20;87.40;;;;;;2057348;28;20073;-91
2021/08/29 05:13:44;;;;;;;4.13;1.63;;;16.20;87.40;;;;;;2056475;28;20134;-91
2021/08/29 05:14:45;;;;;;;3.63;1.40;;;16.20;87.40;;;;;;2055715;28;20038;-89
2021/08/29 05:15:46;;;;;;;4.05;1.58;;;16.20;87.50;;;;;;2064710;28;20074;-91
2021/08/29 05:16:46;;;;;;;4.38;1.70;;;16.20;87.40;;;;;;2062759;28;20185;-90
2021/08/29 05:17:47;;;;;;;3.22;1.38;;;16.20;87.40;;;;;;2052301;28;20078;-89
2021/08/29 05:18:48;;;;;;;3.78;1.42;;;16.20;87.40;;;;;;2056808;28;20291;-91
2021/08/29 05:19:48;;;;;;;4.43;1.50;;;16.20;87.40;;;;;;2064934;28;20042;-91
2021/08/29 05:20:49;;;;;;;5.05;1.70;;;16.20;87.40;;;;;;2061532;28;20412;-89
2021/08/29 05:21:50;;;;;;;3.17;1.60;;;16.20;88.00;;;;;;2058826;28;20100;-90
2021/08/29 05:22:50;;;;;;;3.58;1.60;;;16.20;87.40;;;;;;2055486;28;20047;-91